createdAt,value
2018-03-06T00:02:23.309Z,2.60
2018-03-06T00:04:51.726Z,2.60
2018-03-06T00:07:20.342Z,2.50
2018-03-06T00:09:48.960Z,2.50
2018-03-06T00:12:17.693Z,2.50
2018-03-06T00:14:47.064Z,2.40
2018-03-06T00:17:15.643Z,2.40
2018-03-06T00:19:44.073Z,2.30
2018-03-06T00:22:12.691Z,2.30
2018-03-06T00:24:41.286Z,2.30
2018-03-06T00:27:09.903Z,2.30
2018-03-06T00:29:39.304Z,2.30
2018-03-06T00:32:08.665Z,2.30
2018-03-06T00:34:37.289Z,2.30
2018-03-06T00:37:06.650Z,2.40
2018-03-06T00:39:35.258Z,2.40
2018-03-06T00:42:04.634Z,2.50
2018-03-06T00:44:33.272Z,2.40
2018-03-06T00:47:01.697Z,2.40
2018-03-06T00:49:30.262Z,2.40
2018-03-06T00:51:58.689Z,2.40
2018-03-06T00:54:28.940Z,2.40
2018-03-06T00:56:57.565Z,2.40
2018-03-06T00:59:26.161Z,2.20
2018-03-06T01:01:55.556Z,2.10
2018-03-06T01:04:25.135Z,2.00
2018-03-06T01:06:54.216Z,1.80
2018-03-06T01:09:22.877Z,1.80
2018-03-06T01:11:51.476Z,1.70
2018-03-06T01:14:20.097Z,1.60
2018-03-06T01:16:48.694Z,1.60
2018-03-06T01:19:17.286Z,1.70
2018-03-06T01:21:46.650Z,1.80
2018-03-06T01:24:15.252Z,1.80
2018-03-06T01:26:43.848Z,1.70
2018-03-06T01:29:12.263Z,1.80
2018-03-06T01:31:40.856Z,1.60
2018-03-06T01:34:09.457Z,1.70
2018-03-06T01:36:38.820Z,1.80
2018-03-06T01:39:07.230Z,1.80
2018-03-06T01:41:35.852Z,1.70
2018-03-06T01:44:04.267Z,1.70
2018-03-06T01:46:32.869Z,1.50
2018-03-06T01:49:01.462Z,1.50
2018-03-06T01:51:29.401Z,1.40
2018-03-06T01:53:57.991Z,1.50
2018-03-06T01:56:26.604Z,1.50
2018-03-06T01:58:55.193Z,1.60
2018-03-06T02:01:24.294Z,1.80
2018-03-06T02:03:53.680Z,1.70
2018-03-06T02:06:22.276Z,1.70
2018-03-06T02:08:51.636Z,1.50
2018-03-06T02:11:20.234Z,1.50
2018-03-06T02:13:48.836Z,1.50
2018-03-06T02:16:18.030Z,1.50
2018-03-06T02:18:46.624Z,1.40
2018-03-06T02:21:15.055Z,1.50
2018-03-06T02:23:43.657Z,1.50
2018-03-06T02:26:12.249Z,1.70
2018-03-06T02:28:40.840Z,1.60
2018-03-06T02:31:10.020Z,1.80
2018-03-06T02:33:38.602Z,1.80
2018-03-06T02:36:07.191Z,1.80
2018-03-06T02:38:36.918Z,1.80
2018-03-06T02:41:05.519Z,1.60
2018-03-06T02:43:34.113Z,1.80
2018-03-06T02:46:10.779Z,1.90
2018-03-06T02:48:39.378Z,1.90
2018-03-06T02:51:07.830Z,1.70
2018-03-06T02:53:36.996Z,1.60
2018-03-06T02:56:05.598Z,1.60
2018-03-06T02:58:34.787Z,1.40
2018-03-06T03:01:03.386Z,1.30
2018-03-06T03:03:32.010Z,1.40
2018-03-06T03:06:00.610Z,1.30
2018-03-06T03:08:28.865Z,1.20
2018-03-06T03:10:57.464Z,1.10
2018-03-06T03:13:25.873Z,1.10
2018-03-06T03:15:54.471Z,1.20
2018-03-06T03:18:23.419Z,1.30
2018-03-06T03:20:52.034Z,1.30
2018-03-06T03:23:20.642Z,1.20
2018-03-06T03:25:50.010Z,1.30
2018-03-06T03:28:18.594Z,1.30
2018-03-06T03:30:46.988Z,1.30
2018-03-06T03:33:15.593Z,1.60
2018-03-06T03:35:43.992Z,1.80
2018-03-06T03:38:12.587Z,1.70
2018-03-06T03:40:41.186Z,1.60
2018-03-06T03:43:09.776Z,1.50
2018-03-06T03:45:38.378Z,1.50
2018-03-06T03:48:06.974Z,1.40
2018-03-06T03:50:36.336Z,1.40
2018-03-06T03:53:04.735Z,1.40
2018-03-06T03:55:33.353Z,1.40
2018-03-06T03:58:01.951Z,1.30
2018-03-06T04:00:30.563Z,1.30
2018-03-06T04:02:59.147Z,1.30
2018-03-06T04:05:27.747Z,1.30
2018-03-06T04:07:56.349Z,1.30
2018-03-06T04:10:26.672Z,1.30
2018-03-06T04:12:56.052Z,1.30
2018-03-06T04:15:24.466Z,1.30
2018-03-06T04:17:53.385Z,1.20
2018-03-06T04:20:21.973Z,1.20
2018-03-06T04:22:50.390Z,1.20
2018-03-06T04:25:18.989Z,1.20
2018-03-06T04:27:47.399Z,1.20
2018-03-06T04:30:15.992Z,1.20
2018-03-06T04:32:44.392Z,1.20
2018-03-06T04:35:13.010Z,1.10
2018-03-06T04:37:41.424Z,1.10
2018-03-06T04:40:09.858Z,1.10
2018-03-06T04:42:39.249Z,1.00
2018-03-06T04:45:07.833Z,1.00
2018-03-06T04:47:36.421Z,1.00
2018-03-06T04:50:04.846Z,1.00
2018-03-06T04:52:33.442Z,1.00
2018-03-06T04:55:02.043Z,1.00
2018-03-06T04:57:30.649Z,1.00
2018-03-06T05:00:00.006Z,1.10
2018-03-06T05:02:28.634Z,1.00
2018-03-06T05:04:57.998Z,1.10
2018-03-06T05:07:26.591Z,1.10
2018-03-06T05:09:55.226Z,1.10
2018-03-06T05:12:24.288Z,1.10
2018-03-06T05:14:52.972Z,1.10
2018-03-06T05:17:22.354Z,1.10
2018-03-06T05:19:50.956Z,1.10
2018-03-06T05:22:20.318Z,1.10
2018-03-06T05:24:48.906Z,1.20
2018-03-06T05:27:17.508Z,1.10
2018-03-06T05:29:46.126Z,1.10
2018-03-06T05:32:14.740Z,1.10
2018-03-06T05:34:43.319Z,1.10
2018-03-06T05:37:11.733Z,1.00
2018-03-06T05:39:40.320Z,1.00
2018-03-06T05:42:08.933Z,0.90
2018-03-06T05:44:37.531Z,0.80
2018-03-06T05:47:06.131Z,0.90
2018-03-06T05:49:34.716Z,0.90
2018-03-06T05:52:03.302Z,1.00
2018-03-06T05:54:33.763Z,1.10
2018-03-06T05:57:02.358Z,1.00
2018-03-06T05:59:31.727Z,1.00
2018-03-06T06:02:00.349Z,1.00
2018-03-06T06:04:29.747Z,1.10
2018-03-06T06:06:59.105Z,1.10
2018-03-06T06:09:27.702Z,1.10
2018-03-06T06:11:56.309Z,1.10
2018-03-06T06:14:26.662Z,0.90
2018-03-06T06:16:55.856Z,0.90
2018-03-06T06:19:24.267Z,1.10
2018-03-06T06:21:52.683Z,1.00
2018-03-06T06:24:21.078Z,1.00
2018-03-06T06:26:49.472Z,1.10
2018-03-06T06:29:18.086Z,1.20
2018-03-06T06:31:46.646Z,1.20
2018-03-06T06:34:15.054Z,1.10
2018-03-06T06:36:43.652Z,1.10
2018-03-06T06:39:12.852Z,1.00
2018-03-06T06:41:41.426Z,0.90
2018-03-06T06:44:10.631Z,0.80
2018-03-06T06:46:39.798Z,0.90
2018-03-06T06:49:08.194Z,0.90
2018-03-06T06:51:37.384Z,0.80
2018-03-06T06:54:06.544Z,0.80
2018-03-06T06:56:34.965Z,0.80
2018-03-06T06:59:04.120Z,0.80
2018-03-06T07:01:33.283Z,0.70
2018-03-06T07:04:01.702Z,0.70
2018-03-06T07:06:30.112Z,0.90
2018-03-06T07:08:59.267Z,0.80
2018-03-06T07:11:27.680Z,0.80
2018-03-06T07:13:56.856Z,0.90
2018-03-06T07:16:25.648Z,0.80
2018-03-06T07:18:54.515Z,0.90
2018-03-06T07:21:23.651Z,1.00
2018-03-06T07:23:53.089Z,0.90
2018-03-06T07:26:21.480Z,0.90
2018-03-06T07:28:49.707Z,0.90
2018-03-06T07:31:18.868Z,0.90
2018-03-06T07:33:47.268Z,0.90
2018-03-06T07:36:15.683Z,0.90
2018-03-06T07:38:45.051Z,1.00
2018-03-06T07:41:14.203Z,1.00
2018-03-06T07:43:42.427Z,1.00
2018-03-06T07:46:11.600Z,1.00
2018-03-06T07:48:39.997Z,1.00
2018-03-06T07:51:09.172Z,1.10
2018-03-06T07:53:37.592Z,1.10
2018-03-06T07:56:06.162Z,1.10
2018-03-06T07:58:35.318Z,1.10
2018-03-06T08:01:03.733Z,1.10
2018-03-06T08:03:32.909Z,1.10
2018-03-06T08:06:01.329Z,1.10
2018-03-06T08:08:29.715Z,1.20
2018-03-06T08:10:58.104Z,1.30
2018-03-06T08:13:26.521Z,1.40
2018-03-06T08:15:55.628Z,1.40
2018-03-06T08:18:24.607Z,1.40
2018-03-06T08:20:53.481Z,1.40
2018-03-06T08:23:21.868Z,1.40
2018-03-06T08:25:50.272Z,1.40
2018-03-06T08:28:19.422Z,1.50
2018-03-06T08:30:47.849Z,1.50
2018-03-06T08:33:16.246Z,1.50
2018-03-06T08:35:44.654Z,1.60
2018-03-06T08:38:19.395Z,1.60
2018-03-06T08:40:48.988Z,1.50
2018-03-06T08:43:17.193Z,1.50
2018-03-06T08:45:45.612Z,1.50
2018-03-06T08:48:14.006Z,1.40
2018-03-06T08:50:42.404Z,1.30
2018-03-06T08:53:11.571Z,1.50
2018-03-06T08:55:39.992Z,1.50
2018-03-06T08:58:09.169Z,1.30
2018-03-06T09:00:38.345Z,1.30
2018-03-06T09:03:06.745Z,1.30
2018-03-06T09:05:35.923Z,1.40
2018-03-06T09:08:04.325Z,1.30
2018-03-06T09:10:33.504Z,2.00
2018-03-06T09:13:01.923Z,2.00
2018-03-06T09:15:30.339Z,2.00
2018-03-06T09:17:58.736Z,2.00
2018-03-06T09:20:27.138Z,1.90
2018-03-06T09:22:56.317Z,1.70
2018-03-06T09:25:25.641Z,1.70
2018-03-06T09:27:54.812Z,1.80
2018-03-06T09:30:24.945Z,1.70
2018-03-06T09:32:54.395Z,1.80
2018-03-06T09:35:23.278Z,1.80
2018-03-06T09:37:51.987Z,2.10
2018-03-06T09:40:20.392Z,2.30
2018-03-06T09:42:49.577Z,2.10
2018-03-06T09:45:18.732Z,2.20
2018-03-06T09:47:47.120Z,2.20
2018-03-06T09:50:15.547Z,2.40
2018-03-06T09:52:44.709Z,2.40
2018-03-06T09:55:13.102Z,2.40
2018-03-06T09:57:41.519Z,2.40
2018-03-06T10:00:09.929Z,2.40
2018-03-06T10:02:38.349Z,2.50
2018-03-06T10:05:07.531Z,2.70
2018-03-06T10:07:35.936Z,2.70
2018-03-06T10:10:03.701Z,2.60
2018-03-06T10:12:32.106Z,2.70
2018-03-06T10:15:00.505Z,2.60
2018-03-06T10:17:28.918Z,2.40
2018-03-06T10:19:58.078Z,2.70
2018-03-06T10:22:26.528Z,2.60
2018-03-06T10:24:55.948Z,2.60
2018-03-06T10:27:25.185Z,2.50
2018-03-06T10:29:55.176Z,2.70
2018-03-06T10:32:23.584Z,2.70
2018-03-06T10:34:53.341Z,2.70
2018-03-06T10:37:21.743Z,2.70
2018-03-06T10:39:50.131Z,2.50
2018-03-06T10:42:18.188Z,2.50
2018-03-06T10:44:46.602Z,2.50
2018-03-06T10:47:15.763Z,2.80
2018-03-06T10:49:44.182Z,2.80
2018-03-06T10:52:12.608Z,2.80
2018-03-06T10:54:41.002Z,2.70
2018-03-06T10:57:09.405Z,2.70
2018-03-06T10:59:38.586Z,2.70
2018-03-06T11:02:06.808Z,2.70
2018-03-06T11:04:35.223Z,2.70
2018-03-06T11:07:03.631Z,2.70
2018-03-06T11:09:32.813Z,2.70
2018-03-06T11:12:01.217Z,2.70
2018-03-06T11:14:29.604Z,2.60
2018-03-06T11:16:58.014Z,2.60
2018-03-06T11:19:26.408Z,2.60
2018-03-06T11:21:55.522Z,2.60
2018-03-06T11:24:25.489Z,2.70
2018-03-06T11:26:53.885Z,2.60
2018-03-06T11:29:23.208Z,2.70
2018-03-06T11:31:51.615Z,2.70
2018-03-06T11:34:20.783Z,2.80
2018-03-06T11:36:49.179Z,2.80
2018-03-06T11:39:18.346Z,2.90
2018-03-06T11:41:46.751Z,2.90
2018-03-06T11:44:15.927Z,2.90
2018-03-06T11:46:44.339Z,3.00
2018-03-06T11:49:12.754Z,3.00
2018-03-06T11:51:41.135Z,3.00
2018-03-06T11:54:09.558Z,2.90
2018-03-06T11:56:38.734Z,3.00
2018-03-06T11:59:07.141Z,3.00
2018-03-06T12:01:36.319Z,3.00
2018-03-06T12:04:05.508Z,3.00
2018-03-06T12:06:33.914Z,3.00
2018-03-06T12:09:02.314Z,3.10
2018-03-06T12:11:30.536Z,3.10
2018-03-06T12:13:58.940Z,3.20
2018-03-06T12:16:28.110Z,3.10
2018-03-06T12:18:56.491Z,3.10
2018-03-06T12:21:25.586Z,3.20
2018-03-06T12:23:54.160Z,3.20
2018-03-06T12:26:22.562Z,3.30
2018-03-06T12:28:51.746Z,3.40
2018-03-06T12:31:20.904Z,3.50
2018-03-06T12:33:49.334Z,3.40
2018-03-06T12:36:18.497Z,3.50
2018-03-06T12:38:46.881Z,3.50
2018-03-06T12:41:15.293Z,3.40
2018-03-06T12:43:43.710Z,3.40
2018-03-06T12:46:12.109Z,3.50
2018-03-06T12:48:40.516Z,3.50
2018-03-06T12:51:09.691Z,3.60
2018-03-06T12:53:38.096Z,3.60
2018-03-06T12:56:06.505Z,3.60
2018-03-06T12:58:34.912Z,3.70
2018-03-06T13:01:03.459Z,3.60
2018-03-06T13:03:31.870Z,3.70
2018-03-06T13:06:00.268Z,3.70
2018-03-06T13:08:28.687Z,3.60
2018-03-06T13:10:56.762Z,3.70
2018-03-06T13:13:25.153Z,3.70
2018-03-06T13:15:53.564Z,3.70
2018-03-06T13:18:21.985Z,3.60
2018-03-06T13:20:50.386Z,3.60
2018-03-06T13:23:18.779Z,3.60
2018-03-06T13:25:47.190Z,3.70
2018-03-06T13:28:16.349Z,3.80
2018-03-06T13:30:44.765Z,3.80
2018-03-06T13:33:13.935Z,3.80
2018-03-06T13:35:42.348Z,3.80
2018-03-06T13:38:11.525Z,3.90
2018-03-06T13:40:39.918Z,3.90
2018-03-06T13:43:10.069Z,3.90
2018-03-06T13:45:38.464Z,3.90
2018-03-06T13:48:06.887Z,4.00
2018-03-06T13:50:36.074Z,3.90
2018-03-06T13:53:04.468Z,3.90
2018-03-06T13:55:33.643Z,3.90
2018-03-06T13:58:02.030Z,3.90
2018-03-06T14:00:31.202Z,4.10
2018-03-06T14:03:00.531Z,4.10
2018-03-06T14:05:29.719Z,4.00
2018-03-06T14:07:58.888Z,4.00
2018-03-06T14:10:27.280Z,4.00
2018-03-06T14:12:56.222Z,4.10
2018-03-06T14:15:24.939Z,4.10
2018-03-06T14:17:53.523Z,4.10
2018-03-06T14:20:21.925Z,4.10
2018-03-06T14:22:52.085Z,4.10
2018-03-06T14:25:20.488Z,4.10
2018-03-06T14:27:48.871Z,4.10
2018-03-06T14:30:17.282Z,4.10
2018-03-06T14:32:47.384Z,4.20
2018-03-06T14:35:15.799Z,4.20
2018-03-06T14:37:44.208Z,4.20
2018-03-06T14:40:12.617Z,4.10
2018-03-06T14:42:41.026Z,4.20
2018-03-06T14:45:10.189Z,4.20
2018-03-06T14:47:38.597Z,4.20
2018-03-06T14:50:07.769Z,4.10
2018-03-06T14:52:36.216Z,4.10
2018-03-06T14:55:04.624Z,4.10
2018-03-06T14:57:33.044Z,4.10
2018-03-06T15:00:01.452Z,4.10
2018-03-06T15:02:29.862Z,4.20
2018-03-06T15:04:58.268Z,4.20
2018-03-06T15:07:27.464Z,4.10
2018-03-06T15:09:56.634Z,4.10
2018-03-06T15:12:25.623Z,4.00
2018-03-06T15:14:54.546Z,4.00
2018-03-06T15:17:23.748Z,4.10
2018-03-06T15:19:52.163Z,4.10
2018-03-06T15:22:20.560Z,4.10
2018-03-06T15:24:48.983Z,4.10
2018-03-06T15:27:17.378Z,4.10
2018-03-06T15:29:45.782Z,4.10
2018-03-06T15:32:14.183Z,4.10
2018-03-06T15:34:42.662Z,4.20
2018-03-06T15:37:11.062Z,4.20
2018-03-06T15:39:40.257Z,4.20
2018-03-06T15:42:09.461Z,4.20
2018-03-06T15:44:38.653Z,4.20
2018-03-06T15:47:07.874Z,4.20
2018-03-06T15:49:36.305Z,4.20
2018-03-06T15:52:04.754Z,4.20
2018-03-06T15:54:33.238Z,4.20
2018-03-06T15:57:01.847Z,4.20
2018-03-06T15:59:30.343Z,4.20
2018-03-06T16:01:59.546Z,4.20
2018-03-06T16:04:28.764Z,4.50
2018-03-06T16:06:57.897Z,4.20
2018-03-06T16:09:27.868Z,4.10
2018-03-06T16:11:56.303Z,4.10
2018-03-06T16:14:24.790Z,4.10
2018-03-06T16:16:53.255Z,4.10
2018-03-06T16:19:21.700Z,4.10
2018-03-06T16:21:50.126Z,4.10
2018-03-06T16:24:18.577Z,4.20
2018-03-06T16:26:47.013Z,4.20
2018-03-06T16:29:15.457Z,4.20
2018-03-06T16:31:43.715Z,4.20
2018-03-06T16:34:12.136Z,4.10
2018-03-06T16:36:41.354Z,4.10
2018-03-06T16:39:29.348Z,4.10
2018-03-06T16:41:57.790Z,4.10
2018-03-06T16:44:27.197Z,4.10
2018-03-06T16:46:57.016Z,4.10
2018-03-06T16:49:26.803Z,4.10
2018-03-06T16:51:56.508Z,4.00
2018-03-06T16:54:25.020Z,4.00
2018-03-06T16:56:53.445Z,4.10
2018-03-06T16:59:21.901Z,4.10
2018-03-06T17:01:51.114Z,4.00
2018-03-06T17:04:20.316Z,4.00
2018-03-06T17:06:48.752Z,4.00
2018-03-06T17:09:17.216Z,4.00
2018-03-06T17:11:45.663Z,4.00
2018-03-06T17:14:14.094Z,4.00
2018-03-06T17:16:42.548Z,4.00
2018-03-06T17:19:10.978Z,4.00
2018-03-06T17:21:40.202Z,4.10
2018-03-06T17:24:08.633Z,4.00
2018-03-06T17:26:37.084Z,4.20
2018-03-06T17:29:06.284Z,4.00
2018-03-06T17:31:34.710Z,4.00
2018-03-06T17:34:03.148Z,4.00
2018-03-06T17:36:31.582Z,4.00
2018-03-06T17:39:00.018Z,3.90
2018-03-06T17:41:28.534Z,3.90
2018-03-06T17:43:56.983Z,3.90
2018-03-06T17:46:26.625Z,3.90
2018-03-06T17:48:56.809Z,3.90
2018-03-06T17:51:26.497Z,3.80
2018-03-06T17:53:54.929Z,3.80
2018-03-06T17:56:23.369Z,3.70
2018-03-06T17:58:51.846Z,3.70
2018-03-06T18:01:20.284Z,3.70
2018-03-06T18:03:48.731Z,3.70
2018-03-06T18:06:17.186Z,3.60
2018-03-06T18:08:45.636Z,3.60
2018-03-06T18:11:14.089Z,3.50
2018-03-06T18:13:42.560Z,3.40
2018-03-06T18:16:10.992Z,3.40
2018-03-06T18:18:39.472Z,3.40
2018-03-06T18:21:07.933Z,3.30
2018-03-06T18:23:36.534Z,3.30
2018-03-06T18:26:04.987Z,3.20
2018-03-06T18:28:33.417Z,3.20
2018-03-06T18:31:02.609Z,3.20
2018-03-06T18:33:31.824Z,3.10
2018-03-06T18:36:00.274Z,3.10
2018-03-06T18:38:29.517Z,3.00
2018-03-06T18:40:58.643Z,3.00
2018-03-06T18:43:27.120Z,2.90
2018-03-06T18:45:56.190Z,2.90
2018-03-06T18:48:24.659Z,2.90
2018-03-06T18:51:04.611Z,2.90
2018-03-06T18:53:33.049Z,2.90
2018-03-06T18:56:02.278Z,2.90
2018-03-06T18:58:30.733Z,2.90
2018-03-06T19:01:11.326Z,2.90
2018-03-06T19:03:51.026Z,2.90
2018-03-06T19:06:24.329Z,2.80
2018-03-06T19:08:53.539Z,2.80
2018-03-06T19:11:21.991Z,2.80
2018-03-06T19:13:51.207Z,2.90
2018-03-06T19:16:19.637Z,2.80
2018-03-06T19:18:48.089Z,2.80
2018-03-06T19:21:16.526Z,2.80
2018-03-06T19:23:45.745Z,2.60
2018-03-06T19:26:14.193Z,2.60
2018-03-06T19:28:42.629Z,2.70
2018-03-06T19:31:11.094Z,2.70
2018-03-06T19:33:39.535Z,2.70
2018-03-06T19:36:08.738Z,2.70
2018-03-06T19:38:37.923Z,2.70
2018-03-06T19:41:06.329Z,2.70
2018-03-06T19:43:34.719Z,2.80
2018-03-06T19:46:03.129Z,2.80
2018-03-06T19:48:31.196Z,2.80
2018-03-06T19:50:59.625Z,2.80
2018-03-06T19:53:28.979Z,2.80
2018-03-06T19:55:58.048Z,2.70
2018-03-06T19:58:27.441Z,2.80
2018-03-06T20:00:56.638Z,2.70
2018-03-06T20:03:25.065Z,2.70
2018-03-06T20:05:53.457Z,2.70
2018-03-06T20:08:22.621Z,2.70
2018-03-06T20:10:51.023Z,2.60
2018-03-06T20:13:20.181Z,2.60
2018-03-06T20:15:49.043Z,2.60
2018-03-06T20:18:17.444Z,2.60
2018-03-06T20:20:45.859Z,2.60
2018-03-06T20:23:14.322Z,2.60
2018-03-06T20:25:48.381Z,2.60
2018-03-06T20:28:17.616Z,2.70
2018-03-06T20:30:51.577Z,2.70
2018-03-06T20:33:20.049Z,2.70
2018-03-06T20:35:49.252Z,2.80
2018-03-06T20:41:19.593Z,2.80
2018-03-06T20:43:48.770Z,2.90
2018-03-06T20:46:22.845Z,2.80
2018-03-06T20:48:51.282Z,2.80
2018-03-06T20:51:20.497Z,3.00
2018-03-06T20:56:51.790Z,3.10
2018-03-06T20:59:20.209Z,3.10
2018-03-06T21:01:48.613Z,3.10
2018-03-06T21:04:17.024Z,3.20
2018-03-06T21:06:45.443Z,3.20
2018-03-06T21:09:14.660Z,3.30
2018-03-06T21:11:43.664Z,3.30
2018-03-06T21:14:12.066Z,3.30
2018-03-06T21:16:40.494Z,3.30
2018-03-06T21:19:09.645Z,3.20
2018-03-06T21:21:38.047Z,3.20
2018-03-06T21:24:06.474Z,3.30
2018-03-06T21:26:34.869Z,3.30
2018-03-06T21:29:03.279Z,3.30
2018-03-06T21:31:31.681Z,3.20
2018-03-06T21:34:00.847Z,3.20
2018-03-06T21:36:29.230Z,3.20
2018-03-06T21:38:57.671Z,3.20
2018-03-06T21:41:26.104Z,3.30
2018-03-06T21:43:55.266Z,3.20
2018-03-06T21:46:23.692Z,3.30
2018-03-06T21:48:52.854Z,3.30
2018-03-06T21:51:21.272Z,3.30
2018-03-06T21:53:49.716Z,3.30
2018-03-06T21:56:18.290Z,3.40
2018-03-06T21:58:46.682Z,3.30
2018-03-06T22:01:15.085Z,3.40
2018-03-06T22:03:44.240Z,3.50
2018-03-06T22:06:12.646Z,3.50
2018-03-06T22:08:41.810Z,3.50
2018-03-06T22:11:10.211Z,3.50
2018-03-06T22:13:39.390Z,3.40
2018-03-06T22:16:07.794Z,3.40
2018-03-06T22:18:36.983Z,3.40
2018-03-06T22:21:06.163Z,3.30
2018-03-06T22:23:34.587Z,3.40
2018-03-06T22:26:02.984Z,3.30
2018-03-06T22:28:31.410Z,3.40
2018-03-06T22:31:00.578Z,3.30
2018-03-06T22:33:28.987Z,3.30
2018-03-06T22:35:58.503Z,3.20
2018-03-06T22:38:27.673Z,3.20
2018-03-06T22:40:56.169Z,3.20
2018-03-06T22:43:25.338Z,3.20
2018-03-06T22:45:53.749Z,3.20
2018-03-06T22:48:22.913Z,3.30
2018-03-06T22:50:51.331Z,3.20
2018-03-06T22:53:19.744Z,3.40
2018-03-06T22:55:48.127Z,3.30
2018-03-06T22:58:16.543Z,3.20
2018-03-06T23:00:45.696Z,3.20
2018-03-06T23:03:14.108Z,3.20
2018-03-06T23:05:42.504Z,3.20
2018-03-06T23:08:11.665Z,3.20
2018-03-06T23:10:40.861Z,3.20
2018-03-06T23:13:09.422Z,3.20
2018-03-06T23:15:37.832Z,3.20
2018-03-06T23:18:06.234Z,3.20
2018-03-06T23:20:35.423Z,3.40
2018-03-06T23:23:04.577Z,3.30
2018-03-06T23:25:32.983Z,3.30
2018-03-06T23:28:01.393Z,3.30
2018-03-06T23:30:29.790Z,3.20
2018-03-06T23:32:58.458Z,3.40
2018-03-06T23:35:26.860Z,3.30
2018-03-06T23:37:55.274Z,3.20
2018-03-06T23:40:23.691Z,3.20
2018-03-06T23:42:52.094Z,3.10
2018-03-06T23:45:20.529Z,3.20
2018-03-06T23:47:49.702Z,3.20
2018-03-06T23:50:18.112Z,3.20
2018-03-06T23:52:47.297Z,3.30
2018-03-06T23:55:16.473Z,3.30
2018-03-06T23:57:44.874Z,3.30
